Time;durP1;ratioP1;P1;durP2;ratioP2;P2;SDS_P1;SDS_P2;PMS_P1;PMS_P2;Temp;Humidity;BMP_temperature;BMP_pressure;BME280_temperature;BME280_humidity;BME280_pressure;Samples;Min_cycle;Max_cycle;Signal;HPM_P1;HPM_P2
2021/12/26 00:04:48;;;;;;;16.65;10.18;;;;;;;3.79;83.98;95018.72;10286285;28;98250;-76
2021/12/26 00:09:50;;;;;;;12.90;8.82;;;;;;;3.85;84.15;95027.69;10291726;28;97681;-76
2021/12/26 00:14:53;;;;;;;16.05;9.30;;;;;;;3.91;83.63;95030.56;10286589;28;98606;-76
2021/12/26 00:19:58;;;;;;;12.93;8.40;;;;;;;3.96;83.72;95017.25;10290644;28;98776;-76
2021/12/26 00:25:02;;;;;;;11.80;7.67;;;;;;;4.04;83.53;95022.53;10286861;28;97021;-76
2021/12/26 00:30:08;;;;;;;12.40;7.67;;;;;;;4.10;83.66;95019.41;10299445;28;97536;-76
2021/12/26 00:35:15;;;;;;;10.68;7.32;;;;;;;4.01;83.92;95022.81;10291164;28;96788;-76
2021/12/26 00:40:20;;;;;;;14.50;10.40;;;;;;;4.03;83.88;95033.81;10296087;28;97605;-76
2021/12/26 00:45:23;;;;;;;14.00;9.00;;;;;;;4.08;84.21;95038.59;10293915;28;97917;-76
2021/12/26 00:50:31;;;;;;;14.02;11.02;;;;;;;4.10;84.42;95034.91;10287009;28;96930;-76
2021/12/26 00:55:34;;;;;;;13.15;9.48;;;;;;;4.12;84.41;95045.91;10295241;28;99011;-76
2021/12/26 01:00:40;;;;;;;12.60;9.52;;;;;;;4.16;83.69;95046.44;10283464;28;98727;-76
2021/12/26 01:05:47;;;;;;;13.52;9.52;;;;;;;4.20;83.87;95042.66;10293725;28;96896;-76
2021/12/26 01:10:54;;;;;;;12.63;9.15;;;;;;;4.25;83.81;95045.66;10290716;28;97383;-76
2021/12/26 01:15:59;;;;;;;13.38;9.00;;;;;;;4.22;84.10;95045.09;10283808;28;96896;-77
2021/12/26 01:21:16;;;;;;;14.40;10.90;;;;;;;4.07;84.67;95036.94;10299889;28;99237;-76
2021/12/26 01:26:20;;;;;;;15.50;11.10;;;;;;;4.07;84.21;95036.94;10288544;28;102561;-76
2021/12/26 01:31:24;;;;;;;15.77;11.25;;;;;;;4.13;83.84;95034.63;10286269;28;97822;-76
2021/12/26 01:36:29;;;;;;;17.42;11.57;;;;;;;4.22;84.30;95039.94;10289267;28;96992;-76
2021/12/26 01:41:33;;;;;;;12.77;9.75;;;;;;;4.27;83.83;95048.09;10281838;28;96795;-76
2021/12/26 01:46:36;;;;;;;14.57;9.77;;;;;;;4.32;83.77;95051.09;10283212;28;97170;-76
2021/12/26 01:51:41;;;;;;;13.95;9.80;;;;;;;4.33;84.05;95061.28;10283433;28;96919;-77
2021/12/26 01:56:45;;;;;;;14.27;10.55;;;;;;;4.34;84.00;95054.34;10286083;28;97272;-76
2021/12/26 02:01:48;;;;;;;15.00;10.65;;;;;;;4.32;83.89;95056.25;10291176;28;96884;-76
2021/12/26 02:06:52;;;;;;;14.20;10.65;;;;;;;4.35;84.13;95063.72;10288010;28;96820;-76
2021/12/26 02:11:55;;;;;;;15.57;10.57;;;;;;;4.36;83.68;95073.91;10292788;28;97591;-77
2021/12/26 02:16:58;;;;;;;17.83;11.95;;;;;;;4.15;84.03;95071.50;10291757;28;96734;-77
2021/12/26 02:22:10;;;;;;;22.02;13.65;;;;;;;4.08;84.18;95065.25;10295232;28;97985;-77
2021/12/26 02:32:33;;;;;;;16.92;12.55;;;;;;;4.18;84.05;95063.47;10275242;28;96754;-77
2021/12/26 02:37:37;;;;;;;18.45;11.95;;;;;;;4.22;84.23;95070.97;10288700;28;96808;-77
2021/12/26 02:42:40;;;;;;;17.20;12.82;;;;;;;4.24;83.94;95059.50;10289349;28;98089;-77
2021/12/26 02:47:46;;;;;;;16.88;12.25;;;;;;;4.27;83.81;95073.94;10293593;28;97197;-74
2021/12/26 02:52:51;;;;;;;15.00;10.93;;;;;;;4.29;83.91;95072.03;10289018;28;98813;-74
2021/12/26 02:57:55;;;;;;;;;;;;;;;4.28;83.80;95075.56;10289486;28;96732;-74
2021/12/26 03:02:59;;;;;;;13.68;10.32;;;;;;;4.25;83.81;95081.03;10289284;28;98505;-74
2021/12/26 03:08:05;;;;;;;15.90;11.32;;;;;;;4.19;84.29;95075.44;10290515;28;96892;-74
2021/12/26 03:13:11;;;;;;;14.70;10.98;;;;;;;4.26;84.33;95077.47;10289003;28;98034;-74
2021/12/26 03:18:14;;;;;;;17.80;12.23;;;;;;;4.13;84.15;95082.94;10286349;28;97640;-75
2021/12/26 03:23:23;;;;;;;16.70;11.30;;;;;;;4.09;84.91;95078.97;10292681;28;99055;-74
2021/12/26 03:28:27;;;;;;;14.82;11.18;;;;;;;4.16;84.76;95073.13;10289568;28;97753;-74
2021/12/26 03:33:30;;;;;;;14.07;10.10;;;;;;;4.25;83.91;95076.66;10287824;28;98916;-74
2021/12/26 03:38:36;;;;;;;13.27;9.80;;;;;;;4.32;83.79;95075.16;10277408;28;96739;-75
2021/12/26 03:43:39;;;;;;;12.98;10.23;;;;;;;4.36;83.91;95070.53;10298367;28;97451;-75
2021/12/26 03:48:41;;;;;;;18.02;11.45;;;;;;;4.32;84.16;95066.59;10291260;28;99997;-74
2021/12/26 03:53:46;;;;;;;15.98;11.75;;;;;;;4.16;84.88;95073.13;10291949;28;98938;-75
2021/12/26 03:58:49;;;;;;;24.42;15.30;;;;;;;4.03;85.16;95077.75;10290391;28;99969;-75
2021/12/26 04:03:52;;;;;;;19.83;13.38;;;;;;;4.14;85.10;95066.47;10289538;28;96978;-75
2021/12/26 04:08:56;;;;;;;17.48;12.48;;;;;;;4.19;84.23;95072.88;10294637;28;99928;-75
2021/12/26 04:13:59;;;;;;;20.03;13.97;;;;;;;4.13;84.91;95073.41;10289895;28;99193;-75
2021/12/26 04:19:02;;;;;;;21.75;13.80;;;;;;;4.14;84.90;95075.03;10289621;28;96875;-75
2021/12/26 04:24:07;;;;;;;20.95;15.02;;;;;;;4.11;84.44;95079.69;10286759;28;96834;-74
2021/12/26 04:29:10;;;;;;;24.00;15.40;;;;;;;4.17;84.98;95077.34;10298806;28;96837;-75
2021/12/26 04:34:13;;;;;;;21.15;14.75;;;;;;;4.25;84.52;95073.28;10287602;28;97366;-74
2021/12/26 04:39:18;;;;;;;10.30;8.23;;;;;;;4.33;84.78;95078.56;10289838;28;96907;-74
2021/12/26 04:44:23;;;;;;;12.18;7.45;;;;;;;4.44;84.59;95082.75;10289889;28;97547;-75
2021/12/26 04:49:26;;;;;;;12.43;8.55;;;;;;;4.53;85.02;95085.34;10292971;28;96819;-74
2021/12/26 04:54:30;;;;;;;15.73;11.68;;;;;;;4.58;84.74;95087.50;10282987;28;96812;-75
2021/12/26 04:59:33;;;;;;;17.00;12.13;;;;;;;4.58;84.36;95088.31;10275191;28;96817;-74
2021/12/26 05:04:36;;;;;;;20.17;14.13;;;;;;;4.43;84.65;95084.53;10284809;28;96741;-75
2021/12/26 05:09:41;;;;;;;15.27;11.18;;;;;;;4.44;84.84;95096.50;10290706;28;99092;-75
2021/12/26 05:14:44;;;;;;;13.27;10.13;;;;;;;4.45;84.63;95086.97;10284562;28;96827;-74
2021/12/26 05:19:47;;;;;;;15.77;10.80;;;;;;;4.49;84.69;95086.56;10295338;28;96953;-75
2021/12/26 05:24:52;;;;;;;14.18;10.23;;;;;;;4.54;84.67;95089.56;10285308;28;96869;-75
2021/12/26 05:29:55;;;;;;;18.87;12.97;;;;;;;4.45;84.76;95105.09;10294558;28;98182;-75
2021/12/26 05:34:57;;;;;;;20.08;14.40;;;;;;;4.20;85.51;95108.09;10289110;28;99061;-74
2021/12/26 05:40:03;;;;;;;17.98;12.68;;;;;;;4.29;85.05;95109.03;10293490;28;97133;-74
2021/12/26 05:45:08;;;;;;;18.65;13.23;;;;;;;4.37;85.10;95100.63;10284049;28;99775;-75
2021/12/26 05:50:14;;;;;;;17.33;12.20;;;;;;;4.45;84.28;95097.31;10298314;28;97636;-74
2021/12/26 05:55:18;;;;;;;;;;;;;;;4.51;84.50;95110.53;10291333;28;96973;-74
2021/12/26 06:00:22;;;;;;;16.50;12.18;;;;;;;4.53;84.54;95106.03;10287409;28;97532;-75
2021/12/26 06:05:25;;;;;;;17.27;12.93;;;;;;;4.51;84.60;95102.75;10291585;28;97934;-75
2021/12/26 06:10:29;;;;;;;18.40;13.05;;;;;;;4.45;84.33;95108.47;10303538;28;97065;-75
2021/12/26 06:15:32;;;;;;;21.88;14.50;;;;;;;4.34;84.89;95118.97;10288052;28;96726;-75
2021/12/26 06:20:35;;;;;;;17.65;12.80;;;;;;;4.33;84.88;95114.75;10288565;28;96970;-75
2021/12/26 06:25:39;;;;;;;18.35;14.13;;;;;;;4.35;84.72;95105.91;10293742;28;97264;-74
2021/12/26 06:30:42;;;;;;;20.40;14.23;;;;;;;4.37;84.53;95111.75;10287513;28;99924;-75
2021/12/26 06:35:45;;;;;;;19.45;14.05;;;;;;;4.40;84.11;95105.47;10287841;28;97045;-75
2021/12/26 06:40:50;;;;;;;19.88;14.80;;;;;;;4.33;84.81;95105.25;10285344;28;99734;-75
2021/12/26 06:45:54;;;;;;;21.90;15.05;;;;;;;4.14;84.61;95126.75;10286662;28;96816;-75
2021/12/26 06:50:56;;;;;;;23.80;16.20;;;;;;;4.03;84.93;95119.09;10291784;28;98283;-75
2021/12/26 06:56:01;;;;;;;20.80;15.25;;;;;;;3.98;85.18;95122.09;10291277;28;96953;-75
2021/12/26 07:01:04;;;;;;;21.75;15.88;;;;;;;4.01;85.19;95121.00;10283451;28;96930;-75
2021/12/26 07:06:07;;;;;;;18.33;12.98;;;;;;;4.07;84.91;95115.28;10291518;28;96774;-75
2021/12/26 07:11:11;;;;;;;17.00;12.48;;;;;;;4.09;85.03;95112.56;10293080;28;98081;-74
2021/12/26 07:16:14;;;;;;;19.10;13.80;;;;;;;4.03;84.91;95115.72;10288770;28;98771;-75
2021/12/26 07:21:17;;;;;;;19.23;14.15;;;;;;;3.86;85.01;95127.53;10290389;28;96834;-74
2021/12/26 07:26:23;;;;;;;16.95;12.60;;;;;;;3.88;85.47;95121.25;10301342;28;97404;-75
2021/12/26 07:31:28;;;;;;;18.20;12.60;;;;;;;3.89;85.14;95132.44;10296459;28;96772;-74
2021/12/26 07:36:31;;;;;;;31.70;27.20;;;;;;;3.95;85.37;95130.13;10296894;28;96896;-75
2021/12/26 07:41:36;;;;;;;13.02;10.27;;;;;;;3.93;85.58;95129.41;10280995;28;97004;-75
2021/12/26 07:46:40;;;;;;;13.50;9.03;;;;;;;4.01;85.49;95133.94;10290710;28;97196;-75
2021/12/26 07:51:45;;;;;;;11.85;8.43;;;;;;;4.13;85.14;95140.59;10295235;28;96899;-75
2021/12/26 07:56:49;;;;;;;12.87;9.83;;;;;;;4.27;84.78;95136.00;10291176;28;96744;-75
2021/12/26 08:01:52;;;;;;;14.98;9.80;;;;;;;4.41;85.39;95153.66;10291437;28;96834;-75
2021/12/26 08:06:58;;;;;;;12.15;8.75;;;;;;;4.47;85.20;95150.56;10294463;28;100153;-75
2021/12/26 08:12:06;;;;;;;54.92;29.35;;;;;;;4.52;85.32;95152.72;10289840;28;96868;-75
2021/12/26 08:17:08;;;;;;;21.70;13.98;;;;;;;4.50;85.57;95147.66;10284381;28;97647;-75
2021/12/26 08:22:13;;;;;;;18.38;13.60;;;;;;;4.37;85.14;95157.50;10284496;28;96673;-75
2021/12/26 08:27:18;;;;;;;17.77;12.82;;;;;;;4.40;85.85;95146.84;10278531;28;98114;-75
2021/12/26 08:32:21;;;;;;;17.45;13.27;;;;;;;4.58;85.29;95145.22;10285813;28;96982;-75
2021/12/26 08:37:24;;;;;;;14.00;10.73;;;;;;;4.64;85.08;95150.78;10284466;28;98632;-75
2021/12/26 08:42:28;;;;;;;13.35;10.77;;;;;;;4.74;85.44;95151.59;10283533;28;98699;-75
2021/12/26 08:47:31;;;;;;;14.70;10.82;;;;;;;4.94;84.90;95150.63;10287271;28;97221;-75
2021/12/26 08:52:34;;;;;;;12.13;9.68;;;;;;;5.10;85.11;95152.63;10282484;28;97880;-75
2021/12/26 08:57:38;;;;;;;14.75;10.95;;;;;;;5.25;84.73;95137.44;10283007;28;96879;-75
2021/12/26 09:02:42;;;;;;;16.15;11.55;;;;;;;5.36;84.58;95139.03;10286219;28;96926;-75
2021/12/26 09:07:45;;;;;;;17.48;12.98;;;;;;;5.43;84.93;95145.28;10288482;28;98766;-75
2021/12/26 09:12:49;;;;;;;15.55;11.52;;;;;;;5.42;84.80;95150.59;10288688;28;96889;-75
2021/12/26 09:17:52;;;;;;;16.58;12.65;;;;;;;5.52;84.95;95149.59;10283887;28;98885;-74
2021/12/26 09:22:55;;;;;;;13.77;10.27;;;;;;;5.65;84.80;95164.81;10294665;28;96870;-75
2021/12/26 09:28:00;;;;;;;14.60;10.52;;;;;;;5.83;84.57;95174.41;10292550;28;96890;-75
2021/12/26 09:33:03;;;;;;;13.27;10.55;;;;;;;6.01;84.59;95180.44;10281275;28;99899;-75
2021/12/26 09:38:06;;;;;;;10.80;8.52;;;;;;;6.17;84.26;95186.75;10294361;28;98020;-75
2021/12/26 09:43:11;;;;;;;11.90;9.35;;;;;;;6.26;84.20;95193.69;10287042;28;96797;-75
2021/12/26 09:48:13;;;;;;;12.73;9.07;;;;;;;6.31;83.85;95186.25;10283133;28;96678;-75
2021/12/26 09:53:16;;;;;;;10.52;8.85;;;;;;;6.31;83.85;95191.44;10286855;28;96827;-75
2021/12/26 09:58:21;;;;;;;12.60;9.18;;;;;;;6.28;84.07;95189.97;10280617;28;102956;-75
2021/12/26 10:03:30;;;;;;;8.30;6.50;;;;;;;6.29;83.99;95193.34;10285266;28;96919;-75
2021/12/26 10:08:37;;;;;;;10.35;7.93;;;;;;;6.29;84.00;95188.16;10287355;28;96788;-75
2021/12/26 10:13:45;;;;;;;14.82;10.45;;;;;;;6.28;84.18;95189.97;10294098;28;97801;-75
2021/12/26 10:18:48;;;;;;;12.57;9.73;;;;;;;6.34;84.11;95172.19;10287692;28;98541;-75
2021/12/26 10:23:52;;;;;;;9.93;8.05;;;;;;;6.34;84.02;95174.78;10292867;28;96938;-75
2021/12/26 10:29:13;;;;;;;12.93;10.40;;;;;;;6.49;84.13;95167.31;10292891;28;96873;-75
2021/12/26 10:34:29;;;;;;;14.23;11.07;;;;;;;6.59;83.88;95168.00;10296909;28;96909;-75
2021/12/26 10:39:34;;;;;;;12.77;9.65;;;;;;;6.65;84.04;95163.03;10286503;28;98768;-75
2021/12/26 10:44:40;;;;;;;;;;;;;;;6.77;84.09;95155.84;10296234;28;97065;-75
2021/12/26 10:49:52;;;;;;;9.68;7.63;;;;;;;6.92;83.99;95152.69;10300073;28;100134;-75
2021/12/26 10:54:59;;;;;;;10.35;7.03;;;;;;;7.06;83.61;95161.75;10290307;28;97156;-75
2021/12/26 11:00:13;;;;;;;10.95;7.70;;;;;;;7.13;83.61;95167.97;10298412;28;97438;-75
2021/12/26 11:05:19;;;;;;;9.30;7.25;;;;;;;7.21;83.16;95155.84;10305048;28;96929;-75
2021/12/26 11:10:28;;;;;;;9.73;7.40;;;;;;;7.32;83.22;95156.53;10292929;28;97227;-75
2021/12/26 11:15:34;;;;;;;10.10;7.70;;;;;;;7.41;83.24;95153.03;10275399;28;100409;-77
2021/12/26 11:20:39;;;;;;;13.20;9.63;;;;;;;7.44;83.13;95142.34;10293150;28;96915;-73
2021/12/26 11:25:45;;;;;;;11.80;8.40;;;;;;;7.50;82.89;95141.69;10296657;28;96971;-76
2021/12/26 11:30:50;;;;;;;10.20;8.63;;;;;;;7.58;82.37;95139.13;10285672;28;98769;-76
2021/12/26 11:35:54;;;;;;;15.10;9.68;;;;;;;7.57;82.19;95137.50;10281939;28;98034;-78
2021/12/26 11:41:00;;;;;;;8.70;7.45;;;;;;;7.44;82.13;95137.13;10287833;28;96849;-76
2021/12/26 11:46:14;;;;;;;11.32;8.73;;;;;;;7.32;82.32;95139.19;10287962;28;98059;-76
2021/12/26 11:51:39;;;;;;;7.60;6.60;;;;;;;7.27;82.40;95140.59;10275362;28;98541;-76
2021/12/26 11:56:50;;;;;;;7.53;5.47;;;;;;;7.26;82.36;95137.19;10274066;28;99235;-76
2021/12/26 12:01:55;;;;;;;7.63;5.50;;;;;;;7.27;82.51;95130.19;10284871;28;97723;-76
2021/12/26 12:07:05;;;;;;;7.72;6.05;;;;;;;7.29;82.02;95129.09;10282128;28;102066;-76
2021/12/26 12:12:10;;;;;;;8.80;6.40;;;;;;;7.27;82.03;95138.81;10274766;28;96999;-76
2021/12/26 12:17:15;;;;;;;;;;;;;;;7.26;82.73;95134.59;10282912;28;96776;-76
2021/12/26 12:22:19;;;;;;;7.38;5.13;;;;;;;7.29;82.09;95123.09;10287165;28;97017;-76
2021/12/26 12:27:23;;;;;;;7.15;5.45;;;;;;;7.34;82.54;95126.03;10284954;28;99730;-76
2021/12/26 12:32:28;;;;;;;6.63;5.22;;;;;;;7.40;82.61;95121.00;10273376;28;99289;-76
2021/12/26 12:37:34;;;;;;;6.37;5.00;;;;;;;7.48;82.18;95128.03;10280479;28;96871;-76
2021/12/26 12:42:38;;;;;;;6.07;4.55;;;;;;;7.49;82.49;95127.09;10286113;28;96863;-76
2021/12/26 12:47:42;;;;;;;6.38;4.40;;;;;;;7.55;82.87;95118.66;10286439;28;97527;-76
2021/12/26 12:52:48;;;;;;;6.00;4.45;;;;;;;7.64;82.44;95126.50;10288441;28;98033;-76
2021/12/26 12:57:53;;;;;;;7.38;5.28;;;;;;;7.76;81.80;95126.03;10277735;28;98047;-75
2021/12/26 13:03:00;;;;;;;7.25;4.95;;;;;;;7.83;82.19;95115.00;10273338;28;100247;-74
2021/12/26 13:08:05;;;;;;;7.38;4.88;;;;;;;7.91;82.00;95109.81;10271602;28;97841;-76
2021/12/26 13:13:11;;;;;;;6.70;4.90;;;;;;;7.91;81.79;95107.22;10271024;28;98774;-77
2021/12/26 13:18:15;;;;;;;7.97;6.32;;;;;;;7.94;81.72;95106.91;10274021;28;96853;-76
2021/12/26 13:23:19;;;;;;;8.00;5.37;;;;;;;7.95;81.68;95113.75;10276942;28;99509;-77
2021/12/26 13:28:26;;;;;;;7.18;5.10;;;;;;;8.01;81.18;95102.69;10273703;28;101116;-77
2021/12/26 13:33:36;;;;;;;7.80;5.18;;;;;;;8.08;81.38;95098.50;10269478;28;97047;-76
2021/12/26 13:38:40;;;;;;;4.93;4.30;;;;;;;8.10;80.90;95096.53;10283947;28;96894;-76
2021/12/26 13:43:44;;;;;;;6.60;5.05;;;;;;;8.16;81.57;95095.88;10287138;28;99841;-78
2021/12/26 13:48:50;;;;;;;6.67;4.53;;;;;;;8.19;80.85;95092.16;10292806;28;97328;-78
2021/12/26 13:53:55;;;;;;;5.70;4.10;;;;;;;8.20;81.02;95083.38;10285592;28;96759;-78
2021/12/26 13:58:57;;;;;;;7.73;4.60;;;;;;;8.26;81.09;95085.34;10289710;28;98880;-78
2021/12/26 14:04:02;;;;;;;5.70;4.38;;;;;;;8.27;80.83;95078.34;10290426;28;97596;-77
2021/12/26 14:09:05;;;;;;;6.03;4.73;;;;;;;8.23;80.95;95082.25;10290994;28;98786;-77
2021/12/26 14:14:10;;;;;;;8.95;6.22;;;;;;;8.15;81.47;95075.22;10290913;28;99472;-78
2021/12/26 14:19:16;;;;;;;8.40;6.05;;;;;;;8.20;81.76;95080.75;10284877;28;96880;-78
2021/12/26 14:24:21;;;;;;;6.95;5.53;;;;;;;8.16;82.03;95079.47;10289406;28;97878;-78
2021/12/26 14:29:24;;;;;;;5.60;4.53;;;;;;;8.17;81.81;95083.72;10289787;28;96987;-78
2021/12/26 14:34:31;;;;;;;8.52;5.93;;;;;;;8.14;81.64;95086.63;10285041;28;98265;-78
2021/12/26 14:39:36;;;;;;;7.20;5.00;;;;;;;8.05;81.39;95088.41;10288287;28;96780;-78
2021/12/26 14:44:44;;;;;;;6.30;4.20;;;;;;;7.94;81.15;95092.13;10291936;28;97080;-78
2021/12/26 14:49:53;;;;;;;4.90;3.90;;;;;;;7.84;81.00;95096.66;10289978;28;97566;-79
2021/12/26 14:54:57;;;;;;;5.60;4.18;;;;;;;7.80;81.50;95100.53;10287082;28;102591;-79
2021/12/26 15:00:06;;;;;;;6.07;4.97;;;;;;;7.75;81.75;95106.22;10287423;28;97735;-77
2021/12/26 15:05:15;;;;;;;7.82;5.07;;;;;;;7.73;81.67;95096.94;10284223;28;99171;-78
2021/12/26 15:10:20;;;;;;;6.20;4.93;;;;;;;7.65;81.78;95112.50;10277741;28;99153;-78
2021/12/26 15:15:26;;;;;;;6.78;5.07;;;;;;;7.59;81.89;95108.75;10282530;28;98006;-77
2021/12/26 15:20:36;;;;;;;6.70;5.38;;;;;;;7.56;81.90;95094.31;10281486;28;98088;-78
2021/12/26 15:25:41;;;;;;;7.82;5.65;;;;;;;7.55;82.01;95100.47;10282934;28;101120;-78
2021/12/26 15:30:47;;;;;;;7.88;5.28;;;;;;;7.54;81.65;95095.41;10282492;28;97969;-78
2021/12/26 15:35:51;;;;;;;7.50;5.25;;;;;;;7.44;81.56;95099.91;10283200;28;96897;-78
2021/12/26 15:40:54;;;;;;;6.97;5.50;;;;;;;7.23;82.36;95103.72;10282699;28;97175;-78
2021/12/26 15:45:58;;;;;;;7.97;6.00;;;;;;;7.09;82.56;95099.91;10282720;28;98106;-78
2021/12/26 15:51:02;;;;;;;7.38;5.78;;;;;;;7.13;82.50;95114.25;10280071;28;99477;-78
2021/12/26 15:56:07;;;;;;;10.38;6.68;;;;;;;7.13;82.28;95114.25;10283032;28;99573;-77
2021/12/26 16:01:10;;;;;;;;;;;;;;;7.06;81.94;95123.63;10284991;28;98328;-76
2021/12/26 16:06:14;;;;;;;10.77;7.20;;;;;;;7.00;82.27;95125.03;10297629;28;96774;-77
2021/12/26 16:11:17;;;;;;;15.32;10.60;;;;;;;7.04;82.53;95138.50;10288477;28;96924;-78
2021/12/26 16:16:20;;;;;;;14.57;9.65;;;;;;;6.99;82.91;95151.97;10270580;28;99807;-76
2021/12/26 16:21:24;;;;;;;11.18;8.73;;;;;;;6.99;82.94;95148.56;10285033;28;100789;-74
2021/12/26 16:26:28;;;;;;;11.20;8.88;;;;;;;6.97;82.70;95150.47;10285247;28;99629;-75
2021/12/26 16:31:31;;;;;;;11.57;9.35;;;;;;;6.93;82.84;95159.53;10278132;28;98194;-75
2021/12/26 16:36:36;;;;;;;11.68;9.32;;;;;;;6.86;82.91;95148.94;10283020;28;97710;-75
2021/12/26 16:41:39;;;;;;;9.52;8.50;;;;;;;6.79;83.12;95140.91;10283468;28;98014;-75
2021/12/26 16:46:42;;;;;;;14.40;10.20;;;;;;;6.80;83.06;95132.19;10286696;28;97047;-75
2021/12/26 16:51:46;;;;;;;11.00;7.68;;;;;;;6.51;83.46;95145.41;10285416;28;98214;-75
2021/12/26 16:56:49;;;;;;;11.88;7.80;;;;;;;6.37;83.55;95138.97;10285194;28;96762;-76
2021/12/26 17:01:53;;;;;;;10.05;7.53;;;;;;;6.29;84.06;95136.31;10290693;28;99129;-75
2021/12/26 17:06:58;;;;;;;9.98;6.75;;;;;;;6.32;83.97;95142.97;10286196;28;103235;-76
2021/12/26 17:12:01;;;;;;;13.38;7.97;;;;;;;6.40;83.60;95137.84;10286987;28;102277;-76
2021/12/26 17:17:04;;;;;;;12.55;8.98;;;;;;;6.44;83.61;95142.59;10287021;28;98106;-76
2021/12/26 17:22:09;;;;;;;11.20;7.95;;;;;;;6.51;83.59;95149.81;10287839;28;99189;-75
2021/12/26 17:27:18;;;;;;;12.10;8.73;;;;;;;6.52;83.84;95143.63;10284416;28;97208;-76
2021/12/26 17:32:22;;;;;;;12.18;8.90;;;;;;;6.50;83.40;95142.97;10289181;28;96904;-76
2021/12/26 17:37:26;;;;;;;11.48;6.88;;;;;;;6.26;84.08;95147.81;10291750;28;96908;-76
2021/12/26 17:42:29;;;;;;;7.63;5.88;;;;;;;6.21;83.83;95154.41;10285323;28;98644;-76
2021/12/26 17:47:33;;;;;;;10.93;7.97;;;;;;;6.26;83.94;95159.97;10288843;28;98394;-76
2021/12/26 17:52:37;;;;;;;12.00;8.52;;;;;;;6.30;83.72;95158.69;10290387;28;97763;-76
2021/12/26 17:57:40;;;;;;;16.75;10.73;;;;;;;6.21;nan;95165.56;10292691;28;97211;-76
2021/12/26 18:02:43;;;;;;;23.67;15.63;;;;;;;6.14;83.81;95158.50;10283947;28;117499;-76
2021/12/26 18:07:49;;;;;;;29.15;17.85;;;;;;;6.07;84.25;95174.69;10283549;28;98884;-76
2021/12/26 18:12:52;;;;;;;24.38;16.85;;;;;;;6.08;84.04;95176.28;10287147;28;100104;-76
2021/12/26 18:17:54;;;;;;;24.23;17.30;;;;;;;6.14;83.86;95176.66;10279089;28;96805;-76
2021/12/26 18:22:59;;;;;;;20.80;15.13;;;;;;;6.16;84.14;95167.78;10287580;28;98781;-76
2021/12/26 18:28:02;;;;;;;20.77;14.60;;;;;;;6.21;83.94;95169.97;10273762;28;96993;-76
2021/12/26 18:33:05;;;;;;;18.55;15.27;;;;;;;6.18;83.83;95175.44;10275774;28;99032;-76
2021/12/26 18:38:10;;;;;;;21.27;15.23;;;;;;;5.84;84.71;95178.63;10288803;28;97733;-75
2021/12/26 18:43:16;;;;;;;38.20;20.95;;;;;;;5.68;84.83;95166.28;10293454;28;96805;-76
2021/12/26 18:48:19;;;;;;;23.95;14.23;;;;;;;5.79;84.70;95173.06;10291833;28;96890;-76
2021/12/26 18:53:24;;;;;;;24.60;14.57;;;;;;;5.86;84.21;95158.56;10305894;28;96917;-76
2021/12/26 18:58:28;;;;;;;17.55;11.63;;;;;;;5.87;83.91;95160.19;10297794;28;97663;-76
2021/12/26 19:03:31;;;;;;;21.53;13.10;;;;;;;5.77;84.08;95167.19;10297053;28;97155;-76
2021/12/26 19:08:36;;;;;;;17.77;11.18;;;;;;;5.65;84.38;95159.63;10297480;28;96796;-77
2021/12/26 19:13:39;;;;;;;17.23;12.07;;;;;;;5.53;84.30;95165.94;10289905;28;98601;-76
2021/12/26 19:18:42;;;;;;;13.05;8.40;;;;;;;5.41;84.81;95164.50;10293313;28;96891;-76
2021/12/26 19:23:47;;;;;;;14.32;10.48;;;;;;;5.29;85.31;95164.69;10289266;28;97008;-75
2021/12/26 19:28:49;;;;;;;20.40;13.07;;;;;;;5.44;85.07;95151.25;10295217;28;96867;-76
2021/12/26 19:33:53;;;;;;;15.90;11.88;;;;;;;5.62;85.02;95159.91;10284981;28;96826;-76
2021/12/26 19:38:58;;;;;;;15.38;11.20;;;;;;;5.72;84.84;95160.69;10293171;28;97686;-76
2021/12/26 19:44:01;;;;;;;14.77;10.87;;;;;;;5.77;84.90;95167.19;10310445;28;98377;-75
2021/12/26 19:49:04;;;;;;;18.33;12.38;;;;;;;5.73;84.94;95177.03;10293827;28;101602;-77
2021/12/26 19:54:08;;;;;;;18.10;13.05;;;;;;;5.68;84.93;95164.50;10291597;28;97338;-77
2021/12/26 19:59:13;;;;;;;19.40;14.30;;;;;;;5.75;85.02;95163.94;10296154;28;97356;-75
2021/12/26 20:04:18;;;;;;;19.23;14.35;;;;;;;5.81;84.95;95164.19;10286208;28;97615;-76
2021/12/26 20:09:22;;;;;;;21.03;14.37;;;;;;;5.80;84.59;95159.16;10287569;28;98045;-76
2021/12/26 20:14:25;;;;;;;19.13;13.95;;;;;;;5.72;84.34;95158.09;10308669;28;96926;-75
2021/12/26 20:19:28;;;;;;;33.70;23.08;;;;;;;5.52;84.91;95159.16;10287892;28;96799;-76
2021/12/26 20:24:33;;;;;;;22.92;15.95;;;;;;;5.49;84.84;95152.47;10286897;28;96820;-76
2021/12/26 20:29:36;;;;;;;14.63;10.85;;;;;;;5.44;84.97;95157.25;10285614;28;98702;-76
2021/12/26 20:34:39;;;;;;;16.77;11.82;;;;;;;5.48;84.95;95157.81;10291238;28;96943;-76
2021/12/26 20:39:44;;;;;;;17.80;13.27;;;;;;;5.48;84.93;95160.41;10292073;28;96847;-76
2021/12/26 20:44:49;;;;;;;21.02;16.02;;;;;;;5.51;84.76;95136.78;10278369;28;98994;-75
2021/12/26 20:49:51;;;;;;;;;;;;;;;5.52;84.52;95135.84;10287081;28;96867;-75
2021/12/26 20:54:56;;;;;;;27.85;18.85;;;;;;;5.45;84.47;95137.38;10282768;28;97757;-75
2021/12/26 20:59:59;;;;;;;30.50;18.17;;;;;;;5.14;84.83;95122.09;10283405;28;97074;-75
2021/12/26 21:05:02;;;;;;;19.95;14.23;;;;;;;5.10;85.12;95112.97;10287640;28;96890;-76
2021/12/26 21:10:08;;;;;;;18.30;14.13;;;;;;;5.10;84.93;95113.78;10295332;28;99239;-76
2021/12/26 21:15:13;;;;;;;19.30;14.48;;;;;;;5.09;84.88;95121.69;10275000;28;96733;-76
2021/12/26 21:20:18;;;;;;;18.50;14.15;;;;;;;5.10;84.55;95134.50;10285448;28;97032;-76
2021/12/26 21:25:22;;;;;;;18.35;12.95;;;;;;;5.05;85.21;95126.34;10279968;28;98814;-76
2021/12/26 21:30:25;;;;;;;21.52;14.98;;;;;;;4.94;85.16;95135.09;10278289;28;97067;-76
2021/12/26 21:35:28;;;;;;;22.38;16.25;;;;;;;4.91;84.98;95125.00;10287736;28;96970;-75
2021/12/26 21:40:32;;;;;;;20.83;15.43;;;;;;;4.93;85.18;95125.69;10285061;28;97135;-75
2021/12/26 21:45:36;;;;;;;19.70;13.43;;;;;;;4.92;84.98;95133.59;10282186;28;96879;-75
2021/12/26 21:50:40;;;;;;;22.45;16.05;;;;;;;4.92;85.34;95126.66;10272458;28;100688;-76
2021/12/26 21:55:44;;;;;;;18.42;13.60;;;;;;;4.78;85.44;95129.66;10282731;28;97186;-75
2021/12/26 22:00:47;;;;;;;22.02;15.05;;;;;;;4.66;85.82;95115.25;10279445;28;97548;-76
2021/12/26 22:05:51;;;;;;;19.08;13.55;;;;;;;4.71;85.64;95097.53;10290714;28;96811;-76
2021/12/26 22:10:55;;;;;;;17.95;12.73;;;;;;;4.76;85.48;95087.59;10303297;28;97146;-76
2021/12/26 22:15:58;;;;;;;16.48;12.45;;;;;;;4.65;85.47;95098.13;10274504;28;98581;-76
2021/12/26 22:21:01;;;;;;;17.60;12.45;;;;;;;4.60;85.73;95100.31;10304856;28;96875;-75
2021/12/26 22:26:05;;;;;;;15.45;10.20;;;;;;;4.55;86.22;95109.28;10285632;28;98008;-75
2021/12/26 22:31:08;;;;;;;10.20;7.32;;;;;;;4.67;86.05;95111.72;10286104;28;96936;-76
2021/12/26 22:36:11;;;;;;;10.30;7.32;;;;;;;4.76;85.91;95118.63;10289868;28;96763;-76
2021/12/26 22:41:15;;;;;;;10.73;7.80;;;;;;;4.87;85.69;95107.31;10291160;28;98488;-75
2021/12/26 22:46:18;;;;;;;12.15;9.23;;;;;;;4.90;85.79;95097.50;10286030;28;96977;-76
2021/12/26 22:51:21;;;;;;;13.35;10.00;;;;;;;4.99;85.39;95095.03;10287030;28;97640;-76
2021/12/26 22:56:25;;;;;;;12.88;9.30;;;;;;;5.02;85.63;95099.91;10293161;28;96871;-76
2021/12/26 23:01:29;;;;;;;12.97;10.33;;;;;;;4.81;85.40;95103.50;10290598;28;96818;-76
2021/12/26 23:06:33;;;;;;;9.48;5.78;;;;;;;4.60;85.81;95095.13;10288573;28;96768;-75
2021/12/26 23:11:37;;;;;;;11.07;7.95;;;;;;;4.56;85.96;95098.00;10291780;28;96763;-75
2021/12/26 23:16:40;;;;;;;10.00;6.15;;;;;;;4.61;85.80;95109.69;10289424;28;96832;-76
2021/12/26 23:21:43;;;;;;;10.50;7.43;;;;;;;4.61;84.93;95091.56;10289100;28;96906;-75
2021/12/26 23:26:48;;;;;;;9.13;6.90;;;;;;;4.47;84.86;95096.25;10293935;28;96899;-75
2021/12/26 23:31:51;;;;;;;21.27;14.13;;;;;;;4.39;85.13;95099.50;10294180;28;97050;-75
2021/12/26 23:36:55;;;;;;;19.40;13.32;;;;;;;4.30;85.55;95099.50;10292928;28;96775;-76
2021/12/26 23:41:59;;;;;;;15.32;11.50;;;;;;;4.23;84.61;95098.41;10292145;28;102463;-75